Highland Park, Louisiana
Current Conditions -  °F | °C
As of 2:53 AM on Thursday 27 Nov 2014 (Local Time) from KMLU Reporting Station
Clear Clear  
Wind Chill: 38°   Ceiling: Unl
Heat Index: 43°   Visibility: 10mi
Dew Point: 33°   Wind: 8mph
Humidity: 68%   Direction: 310°NW
Pressure: 30.38"   Gusts: NA
Location:  32.5473°N, 92.2007°W
Report Text: KMLU 270853Z AUTO 31007KT 10SM CLR 06/01 A3038 RMK AO2 SLP287 T00610006 53028
Loading
Personal Weather Stations






























Interactive Weather Map New forecast layout! Learn more

10-Day Weather Forecast

Advertisements
Track Severe Weather on mobile